Time;durP1;ratioP1;P1;durP2;ratioP2;P2;SDS_P1;SDS_P2;PMS_P1;PMS_P2;Temp;Humidity;BMP_temperature;BMP_pressure;BME280_temperature;BME280_humidity;BME280_pressure;Samples;Min_cycle;Max_cycle;Signal;HPM_P1;HPM_P2
2024/02/23 00:00:11;;;;;;;5.97;0.60;;;;;;;7.06;66.36;97343.72;10300493;28;20038;-79
2024/02/23 00:05:14;;;;;;;2.42;0.70;;;;;;;6.71;66.61;97332.53;10291208;28;20461;-78
2024/02/23 00:10:17;;;;;;;2.47;0.80;;;;;;;6.59;66.66;97348.09;10278955;28;20145;-79
2024/02/23 00:15:23;;;;;;;2.17;0.70;;;;;;;6.33;68.20;97335.00;10266211;28;20426;-79
2024/02/23 00:20:26;;;;;;;3.35;0.68;;;;;;;6.66;68.71;97355.41;10297338;28;20584;-79
2024/02/23 00:25:29;;;;;;;1.42;0.80;;;;;;;6.44;69.84;97370.31;10290757;28;20182;-78
2024/02/23 00:30:34;;;;;;;7.10;0.32;;;;;;;6.04;72.70;97388.91;10283219;28;20058;-79
2024/02/23 00:35:37;;;;;;;0.55;0.40;;;;;;;5.67;78.56;97390.22;10288400;28;20066;-80
2024/02/23 00:40:40;;;;;;;0.70;0.57;;;;;;;5.26;83.01;97453.22;10287964;28;20058;-80
2024/02/23 00:45:44;;;;;;;0.40;0.40;;;;;;;4.98;91.14;97530.56;10263732;28;20071;-78
2024/02/23 00:50:47;;;;;;;1.40;0.70;;;;;;;4.39;100.00;97457.78;10273805;28;20074;-79
2024/02/23 00:55:50;;;;;;;3.08;0.82;;;;;;;3.76;100.00;97511.91;10292763;28;20061;-78
2024/02/23 01:00:56;;;;;;;0.50;0.50;;;;;;;3.59;100.00;97524.16;10295165;28;20058;-78
2024/02/23 01:05:59;;;;;;;0.30;0.30;;;;;;;3.50;100.00;97546.28;10285407;28;20057;-79
2024/02/23 01:11:02;;;;;;;0.20;0.20;;;;;;;3.31;100.00;97589.69;10288534;28;20685;-80
2024/02/23 01:16:08;;;;;;;1.40;0.20;;;;;;;3.14;100.00;97590.44;10302329;28;20066;-77
2024/02/23 01:21:11;;;;;;;0.20;0.20;;;;;;;3.54;100.00;97648.53;10265104;28;20062;-79
2024/02/23 01:26:14;;;;;;;0.45;0.45;;;;;;;3.07;100.00;97693.63;10268511;28;20065;-78
2024/02/23 01:31:18;;;;;;;0.35;0.25;;;;;;;3.32;100.00;97689.53;10306180;28;20167;-78
2024/02/23 01:36:21;;;;;;;0.25;0.25;;;;;;;3.50;100.00;97705.53;10291657;28;20047;-79
2024/02/23 01:41:24;;;;;;;0.20;0.20;;;;;;;3.58;100.00;97680.91;10288343;28;20222;-78
2024/02/23 01:46:29;;;;;;;1.95;0.70;;;;;;;3.48;100.00;97678.28;10285941;28;20051;-79
2024/02/23 01:51:33;;;;;;;0.57;0.57;;;;;;;3.39;100.00;97733.06;10295802;28;20160;-79
2024/02/23 01:56:39;;;;;;;0.60;0.60;;;;;;;3.65;100.00;97737.75;10279552;28;20106;-78
2024/02/23 02:01:45;;;;;;;0.73;0.60;;;;;;;3.81;100.00;97761.84;10296824;28;20046;-78
2024/02/23 02:06:49;;;;;;;1.45;0.90;;;;;;;3.46;100.00;97746.63;10322573;28;20051;-78
2024/02/23 02:11:53;;;;;;;2.13;0.93;;;;;;;3.98;100.00;97772.69;10299155;28;20212;-79
2024/02/23 02:16:57;;;;;;;2.15;0.50;;;;;;;3.58;100.00;97758.72;10286704;28;20642;-80
2024/02/23 02:22:00;;;;;;;2.13;0.88;;;;;;;3.62;98.10;97797.28;10263641;28;20050;-80
2024/02/23 02:27:03;;;;;;;1.35;0.77;;;;;;;3.65;95.79;97797.00;10287529;28;20042;-80
2024/02/23 02:32:08;;;;;;;1.08;0.98;;;;;;;3.50;95.86;97816.97;10282833;28;20057;-79
2024/02/23 02:37:11;;;;;;;3.55;0.93;;;;;;;3.77;94.11;97815.41;10280734;28;20046;-79
2024/02/23 02:42:14;;;;;;;0.77;0.77;;;;;;;3.69;94.45;97838.19;10281846;28;20047;-80
2024/02/23 02:47:19;;;;;;;2.15;1.42;;;;;;;3.80;93.45;97854.94;10284409;28;20140;-80
2024/02/23 02:52:23;;;;;;;2.03;1.88;;;;;;;3.65;94.57;97847.44;10260397;28;20560;-78
2024/02/23 02:57:26;;;;;;;5.25;2.75;;;;;;;4.00;92.85;97856.56;10280447;28;20425;-80
2024/02/23 03:02:30;;;;;;;2.60;1.88;;;;;;;3.61;92.39;97901.78;10285592;28;20058;-78
2024/02/23 03:07:33;;;;;;;3.90;2.30;;;;;;;3.67;90.99;97852.56;10279335;28;20050;-79
2024/02/23 03:12:36;;;;;;;4.78;2.50;;;;;;;3.82;90.52;97859.13;10275831;28;20051;-82
2024/02/23 03:17:40;;;;;;;1.58;1.48;;;;;;;3.81;88.07;97856.59;10269692;28;20050;-77
2024/02/23 03:22:44;;;;;;;3.88;1.98;;;;;;;4.06;87.66;97871.06;10269327;28;20541;-77
2024/02/23 03:27:47;;;;;;;3.83;1.20;;;;;;;3.92;86.04;97901.59;10274174;28;20182;-80
2024/02/23 03:32:51;;;;;;;3.10;1.40;;;;;;;4.32;83.97;97882.75;10289300;28;20054;-78
2024/02/23 03:37:54;;;;;;;4.45;1.58;;;;;;;4.32;83.59;97895.19;10305672;28;20050;-78
2024/02/23 03:42:57;;;;;;;2.83;0.90;;;;;;;4.23;82.88;97888.94;10292469;28;20054;-82
2024/02/23 03:48:05;;;;;;;2.05;1.35;;;;;;;4.34;82.19;97891.41;10286902;28;20086;-82
2024/02/23 03:53:08;;;;;;;2.47;1.23;;;;;;;4.55;81.32;97887.69;10290659;28;20103;-80
2024/02/23 03:58:11;;;;;;;3.40;1.42;;;;;;;4.25;81.85;97923.31;10288223;28;20075;-82
2024/02/23 04:03:15;;;;;;;3.13;0.80;;;;;;;4.32;80.78;97903.19;10266797;28;20046;-78
2024/02/23 04:08:18;;;;;;;1.77;0.90;;;;;;;4.23;80.52;97922.66;10289003;28;20054;-80
2024/02/23 04:13:21;;;;;;;5.53;1.08;;;;;;;4.38;78.87;97919.38;10263408;28;20047;-81
2024/02/23 04:18:25;;;;;;;4.28;0.93;;;;;;;4.07;77.37;97932.03;10281645;28;20054;-78
2024/02/23 04:23:28;;;;;;;2.63;0.93;;;;;;;4.47;76.33;97922.13;10299060;28;20093;-80
2024/02/23 04:28:33;;;;;;;2.70;1.00;;;;;;;4.06;77.76;97934.84;10278237;28;20054;-81
2024/02/23 04:33:38;;;;;;;3.72;0.75;;;;;;;4.44;75.42;97925.09;10284499;28;20062;-78
2024/02/23 04:38:41;;;;;;;2.85;0.70;;;;;;;4.18;75.75;97973.56;10269955;28;20061;-78
2024/02/23 04:43:44;;;;;;;1.00;0.50;;;;;;;4.02;76.49;97952.88;10282908;28;20074;-78
2024/02/23 04:48:48;;;;;;;2.53;0.68;;;;;;;4.21;76.20;97957.31;10276981;28;20058;-79
2024/02/23 04:53:51;;;;;;;3.22;0.63;;;;;;;4.23;75.95;97962.50;10268079;28;20070;-80
2024/02/23 04:58:54;;;;;;;2.53;0.90;;;;;;;3.98;77.74;97971.88;10287520;28;20043;-80
2024/02/23 05:03:59;;;;;;;1.85;0.40;;;;;;;4.20;76.70;97982.22;10289772;28;20430;-79
2024/02/23 05:09:02;;;;;;;1.48;0.65;;;;;;;4.36;76.82;97971.84;10288422;28;20972;-82
2024/02/23 05:14:05;;;;;;;3.13;0.70;;;;;;;4.47;76.58;97985.94;10293289;28;20770;-80
2024/02/23 05:19:10;;;;;;;5.85;1.92;;;;;;;4.22;76.89;98003.34;10297426;28;20046;-81
2024/02/23 05:24:13;;;;;;;1.13;0.47;;;;;;;4.31;76.83;98024.59;10271699;28;20050;-78
2024/02/23 05:29:19;;;;;;;2.70;0.82;;;;;;;4.02;78.12;98000.69;10274634;28;20057;-81
2024/02/23 05:34:23;;;;;;;2.58;0.60;;;;;;;4.17;76.70;98009.94;10294960;28;20669;-79
2024/02/23 05:39:26;;;;;;;2.15;0.90;;;;;;;4.32;77.39;98001.50;10292406;28;20054;-79
2024/02/23 05:44:29;;;;;;;5.65;1.58;;;;;;;4.44;76.84;98003.00;10299369;28;20603;-80
2024/02/23 05:49:35;;;;;;;6.13;1.75;;;;;;;4.29;77.09;98018.56;10275591;28;20047;-80
2024/02/23 05:54:38;;;;;;;16.73;1.40;;;;;;;4.07;78.47;98048.09;10295326;28;20054;-78
2024/02/23 05:59:41;;;;;;;2.85;1.77;;;;;;;4.33;77.31;98003.16;10284090;28;20410;-79
2024/02/23 06:04:45;;;;;;;6.72;2.00;;;;;;;4.34;77.16;98010.19;10278389;28;20050;-80
2024/02/23 06:09:48;;;;;;;7.07;1.25;;;;;;;4.49;76.31;98019.38;10284081;28;20055;-76
2024/02/23 06:14:51;;;;;;;2.88;1.38;;;;;;;4.41;76.68;98016.59;10293339;28;20054;-78
2024/02/23 06:19:57;;;;;;;5.18;1.50;;;;;;;4.34;76.43;98026.13;10300172;28;20062;-80
2024/02/23 06:25:00;;;;;;;3.33;1.30;;;;;;;4.66;74.55;98027.59;10317516;28;20053;-79
2024/02/23 06:30:04;;;;;;;2.38;1.23;;;;;;;4.64;74.45;98045.53;10290559;28;20113;-81
2024/02/23 06:35:11;;;;;;;6.60;0.98;;;;;;;4.43;73.77;98033.25;10272356;28;20103;-79
2024/02/23 06:40:14;;;;;;;3.38;0.98;;;;;;;4.68;73.50;98038.94;10285196;28;20050;-81
2024/02/23 06:45:19;;;;;;;7.45;1.02;;;;;;;4.39;73.77;98045.97;10283590;28;20049;-81
2024/02/23 06:50:23;;;;;;;2.08;0.73;;;;;;;4.70;73.04;98056.41;10267825;28;20058;-82
2024/02/23 06:55:26;;;;;;;7.13;1.88;;;;;;;4.85;71.96;98062.09;10290879;28;20050;-80
2024/02/23 07:00:29;;;;;;;1.23;0.47;;;;;;;4.53;71.90;98071.28;10278946;28;20053;-80
2024/02/23 07:05:35;;;;;;;7.35;0.77;;;;;;;4.90;70.93;98069.66;10260664;28;20051;-79
2024/02/23 07:10:38;;;;;;;1.63;0.63;;;;;;;4.56;71.88;98100.25;10275440;28;20078;-79
2024/02/23 07:15:41;;;;;;;5.95;0.88;;;;;;;5.14;70.40;98093.16;10290896;28;20453;-79
2024/02/23 07:20:46;;;;;;;3.40;0.40;;;;;;;5.18;69.40;98090.03;10280015;28;20057;-81
2024/02/23 07:25:50;;;;;;;3.53;0.47;;;;;;;5.27;69.31;98088.34;10284682;28;20054;-81
2024/02/23 07:30:53;;;;;;;3.60;0.55;;;;;;;5.49;68.71;98101.25;10265372;28;21311;-78
2024/02/23 07:35:58;;;;;;;2.17;0.60;;;;;;;5.87;66.39;98095.84;10270952;28;20078;-79
2024/02/23 07:41:01;;;;;;;4.93;0.85;;;;;;;5.61;67.42;98090.41;10276589;28;20053;-79
2024/02/23 07:46:08;;;;;;;5.63;0.80;;;;;;;5.49;67.04;98090.59;10288236;28;20145;-79
2024/02/23 07:51:12;;;;;;;3.20;0.90;;;;;;;6.20;64.03;98102.38;10288529;28;20494;-79
2024/02/23 07:56:16;;;;;;;5.22;0.55;;;;;;;5.62;64.68;98100.94;11377777;23;20130;-78
2024/02/23 08:01:19;;;;;;;8.07;0.63;;;;;;;6.28;63.28;98105.13;10295078;28;20073;-78
2024/02/23 08:06:24;;;;;;;7.35;0.70;;;;;;;6.42;61.92;98113.53;10296436;28;20047;-80
2024/02/23 08:11:27;;;;;;;0.75;0.28;;;;;;;6.60;60.44;98141.06;10288649;28;20050;-79
2024/02/23 08:16:30;;;;;;;2.80;0.50;;;;;;;6.66;61.07;98143.09;10288580;28;20043;-78
2024/02/23 08:21:34;;;;;;;2.08;0.55;;;;;;;6.52;60.64;98156.97;10281127;28;20067;-77
2024/02/23 08:26:38;;;;;;;4.45;1.20;;;;;;;6.85;59.80;98158.91;10291087;28;20097;-78
2024/02/23 08:31:41;;;;;;;1.13;0.50;;;;;;;7.45;58.47;98154.69;10306176;28;20166;-79
2024/02/23 08:36:46;;;;;;;0.85;0.32;;;;;;;7.18;58.46;98150.34;10336168;28;20049;-78
2024/02/23 08:41:51;;;;;;;2.25;0.47;;;;;;;6.09;61.76;98174.56;10326370;28;20131;-79
2024/02/23 08:46:54;;;;;;;4.30;0.68;;;;;;;6.32;62.84;98164.28;10312286;28;20038;-78
2024/02/23 08:51:59;;;;;;;2.40;0.50;;;;;;;6.33;62.95;98177.47;10328268;28;20507;-78
2024/02/23 08:57:03;;;;;;;3.22;0.32;;;;;;;5.84;63.22;98174.28;10328058;28;20457;-79
2024/02/23 09:02:09;;;;;;;5.25;0.68;;;;;;;5.91;64.53;98175.34;10328475;28;20125;-78
2024/02/23 09:07:13;;;;;;;3.92;0.65;;;;;;;6.26;63.40;98181.75;10306442;28;20129;-78
2024/02/23 09:12:17;;;;;;;1.55;0.52;;;;;;;5.99;63.25;98201.25;10320243;28;20122;-78
2024/02/23 09:17:20;;;;;;;6.72;0.70;;;;;;;5.90;63.97;98188.81;10305777;28;20058;-78
2024/02/23 09:22:25;;;;;;;5.28;0.73;;;;;;;5.85;64.56;98194.59;10305189;28;20046;-79
2024/02/23 09:27:28;;;;;;;4.45;0.73;;;;;;;5.51;65.40;98204.94;10315948;28;20042;-80
2024/02/23 09:32:31;;;;;;;2.63;0.60;;;;;;;5.79;64.83;98194.31;10305202;28;20046;-79
2024/02/23 09:37:35;;;;;;;5.15;0.70;;;;;;;5.90;63.82;98195.00;10330195;28;20051;-80
2024/02/23 09:42:39;;;;;;;4.22;0.80;;;;;;;5.81;65.08;98197.69;10301574;28;20039;-79
2024/02/23 09:47:43;;;;;;;6.15;0.70;;;;;;;5.99;63.19;98209.25;10309734;28;20094;-79
2024/02/23 09:52:50;;;;;;;2.92;0.57;;;;;;;6.22;63.07;98207.00;10310278;28;20043;-78
2024/02/23 09:57:59;;;;;;;0.40;0.20;;;;;;;6.11;62.37;98225.88;10278165;28;20137;-79
2024/02/23 10:03:03;;;;;;;4.32;0.50;;;;;;;5.81;62.89;98227.81;10293296;28;20050;-77
2024/02/23 10:08:09;;;;;;;6.95;0.70;;;;;;;5.91;61.87;98209.97;10283822;28;20042;-78
2024/02/23 10:13:12;;;;;;;4.95;0.57;;;;;;;6.09;61.53;98220.69;10285888;28;20035;-78
2024/02/23 10:18:15;;;;;;;4.25;0.60;;;;;;;6.06;61.26;98225.47;10286251;28;20112;-78
2024/02/23 10:23:20;;;;;;;1.75;0.28;;;;;;;6.07;60.37;98232.50;10267887;28;20047;-78
2024/02/23 10:28:23;;;;;;;2.72;0.90;;;;;;;6.12;60.13;98236.41;10288707;28;20061;-77
2024/02/23 10:33:27;;;;;;;1.88;0.40;;;;;;;6.41;59.28;98240.72;10286824;28;20038;-77
2024/02/23 10:38:33;;;;;;;2.30;0.55;;;;;;;6.20;59.05;98251.66;10293286;28;20041;-78
2024/02/23 10:43:46;;;;;;;2.17;0.60;;;;;;;6.36;58.47;98243.84;10317552;28;20973;-79
2024/02/23 10:48:56;;;;;;;3.05;0.52;;;;;;;6.62;58.28;98240.44;10340221;28;20046;-79
2024/02/23 10:54:01;;;;;;;4.63;1.00;;;;;;;6.67;58.02;98242.66;10302188;28;20134;-79
2024/02/23 10:59:04;;;;;;;1.38;0.40;;;;;;;6.54;58.88;98229.69;10291629;28;20043;-79
2024/02/23 11:04:09;;;;;;;3.03;0.63;;;;;;;6.34;59.62;98232.47;10293276;28;20047;-78
2024/02/23 11:09:14;;;;;;;1.63;0.35;;;;;;;6.77;56.96;98228.22;10287410;28;20054;-78
2024/02/23 11:14:17;;;;;;;3.55;0.68;;;;;;;6.81;57.24;98228.78;10293399;28;20533;-79
2024/02/23 11:19:20;;;;;;;1.33;0.90;;;;;;;7.04;56.27;98210.50;10300691;28;20109;-79
2024/02/23 11:24:26;;;;;;;4.57;0.80;;;;;;;7.23;56.40;98201.47;10296472;28;20042;-79
2024/02/23 11:29:32;;;;;;;3.53;1.38;;;;;;;7.45;55.53;98184.06;10285719;28;20047;-79
2024/02/23 13:13:53;;;;;;;2.15;0.68;;;;;;;10.62;48.41;98188.72;10246054;29;20145;-77
2024/02/23 13:18:56;;;;;;;2.90;0.52;;;;;;;9.12;50.03;98182.38;10258424;29;20048;-79
2024/02/23 13:23:59;;;;;;;4.32;0.73;;;;;;;8.95;52.08;98194.94;10275219;29;20051;-78
2024/02/23 13:29:03;;;;;;;5.35;0.70;;;;;;;8.60;52.59;98198.75;10275836;28;20078;-79
2024/02/23 13:34:09;;;;;;;5.53;0.50;;;;;;;9.75;50.70;98185.25;10275345;29;20062;-78
2024/02/23 13:39:12;;;;;;;1.85;0.40;;;;;;;9.63;50.26;98200.88;10272465;29;20043;-78
2024/02/23 13:44:17;;;;;;;3.60;0.55;;;;;;;8.50;53.19;98200.72;10274964;29;20049;-79
2024/02/23 13:49:20;;;;;;;3.15;0.65;;;;;;;8.77;52.09;98208.44;10261120;28;20051;-78
2024/02/23 13:54:23;;;;;;;1.33;0.50;;;;;;;8.43;53.17;98205.88;10276498;28;20044;-79
2024/02/23 13:59:27;;;;;;;4.85;0.60;;;;;;;8.14;53.15;98222.31;10275793;28;20047;-78
2024/02/23 14:04:31;;;;;;;1.48;0.40;;;;;;;7.84;54.26;98216.50;10246146;29;20055;-78
2024/02/23 14:09:34;;;;;;;2.40;0.40;;;;;;;7.69;54.31;98234.16;10216302;29;20055;-79
2024/02/23 14:14:39;;;;;;;4.00;0.50;;;;;;;7.94;55.09;98245.81;10222445;29;20043;-78
2024/02/23 14:19:42;;;;;;;1.95;0.50;;;;;;;7.59;61.81;98238.75;10234493;28;20205;-79
2024/02/23 14:24:45;;;;;;;2.60;0.65;;;;;;;6.48;72.25;98280.97;10241780;28;20051;-79
2024/02/23 14:29:49;;;;;;;1.83;0.32;;;;;;;6.37;76.60;98260.69;10229303;28;20059;-79
2024/02/23 14:34:52;;;;;;;4.25;0.60;;;;;;;6.51;77.67;98246.00;10212721;29;20059;-78
2024/02/23 14:39:55;;;;;;;7.57;0.98;;;;;;;6.78;72.83;98256.59;10215968;28;21130;-78
2024/02/23 14:44:59;;;;;;;1.13;0.50;;;;;;;7.06;71.92;98261.91;10206136;29;20051;-78
2024/02/23 14:50:02;;;;;;;2.25;0.40;;;;;;;7.21;68.99;98257.69;10201486;29;21795;-78
2024/02/23 14:55:06;;;;;;;4.18;0.82;;;;;;;7.05;66.69;98268.25;10216065;29;20048;-78
2024/02/23 15:00:12;;;;;;;2.60;0.60;;;;;;;7.25;67.39;98247.53;10215498;28;20051;-78
2024/02/23 15:05:15;;;;;;;1.77;0.50;;;;;;;7.09;65.72;98255.41;10211468;28;20458;-78
2024/02/23 15:10:18;;;;;;;3.22;0.55;;;;;;;7.07;65.61;98266.22;10203184;28;20133;-77
2024/02/23 15:15:23;;;;;;;5.15;0.60;;;;;;;7.46;65.92;98256.06;10221833;29;20055;-78
2024/02/23 15:20:26;;;;;;;2.50;0.50;;;;;;;7.22;65.62;98270.03;10223574;28;20058;-77
2024/02/23 15:25:29;;;;;;;2.78;0.50;;;;;;;7.56;65.14;98263.13;10216157;29;20538;-78
2024/02/23 15:30:34;;;;;;;3.53;1.90;;;;;;;7.26;64.73;98255.38;10212499;28;20115;-78
2024/02/23 15:35:37;;;;;;;3.80;1.73;;;;;;;6.76;66.41;98265.75;10213760;29;20505;-78
2024/02/23 15:40:40;;;;;;;3.60;1.73;;;;;;;6.51;72.80;98275.34;10199523;28;20050;-78
2024/02/23 15:45:44;;;;;;;4.47;0.63;;;;;;;6.60;70.46;98261.09;10205375;29;20139;-78
2024/02/23 15:50:48;;;;;;;5.78;0.90;;;;;;;6.99;71.68;98275.03;10211095;28;20145;-78
2024/02/23 15:56:11;;;;;;;1.98;0.70;;;;;;;7.22;69.55;98267.38;10215194;29;20054;-79
2024/02/23 16:01:15;;;;;;;1.92;0.47;;;;;;;6.99;68.82;98275.03;10193245;28;20059;-79
2024/02/23 16:06:18;;;;;;;2.25;0.50;;;;;;;6.64;73.76;98267.81;10220247;29;20061;-79
2024/02/23 16:11:21;;;;;;;10.32;1.42;;;;;;;6.76;74.46;98271.94;10224040;28;20061;-78
2024/02/23 16:16:26;;;;;;;1.17;0.70;;;;;;;6.97;72.18;98276.19;10224248;28;20043;-79
2024/02/23 16:21:31;;;;;;;1.42;0.70;;;;;;;7.06;71.07;98277.91;10219022;28;20051;-79
2024/02/23 16:26:37;;;;;;;1.00;0.57;;;;;;;6.95;68.85;98281.66;10195453;29;20066;-78
2024/02/23 16:31:42;;;;;;;2.10;1.67;;;;;;;7.19;65.43;98275.69;10222463;28;20146;-78
2024/02/23 16:36:45;;;;;;;7.07;1.50;;;;;;;7.01;65.47;98286.38;10228165;29;20059;-79
2024/02/23 16:41:48;;;;;;;3.05;0.85;;;;;;;7.43;64.24;98287.56;10228704;28;20055;-79
2024/02/23 16:46:53;;;;;;;0.85;0.32;;;;;;;6.92;63.79;98295.31;10204639;29;20067;-78
2024/02/23 16:57:35;;;;;;;2.60;0.75;;;;;;;7.30;62.87;98308.50;11177496;23;20058;-77
2024/02/23 17:02:40;;;;;;;1.42;0.55;;;;;;;7.44;62.33;98311.44;10291130;28;20046;-78
2024/02/23 17:07:43;;;;;;;1.42;0.90;;;;;;;7.45;62.62;98314.94;10281346;28;20055;-78
2024/02/23 17:12:47;;;;;;;0.65;0.43;;;;;;;7.24;62.44;98316.13;10287652;28;20055;-78
2024/02/23 17:17:52;;;;;;;3.15;0.68;;;;;;;7.20;63.27;98320.09;10289755;28;20043;-77
2024/02/23 17:22:55;;;;;;;3.95;0.65;;;;;;;7.01;62.44;98320.25;10288814;28;20129;-78
2024/02/23 17:27:58;;;;;;;1.42;0.60;;;;;;;7.18;62.55;98322.06;10283026;28;20074;-78
2024/02/23 17:33:02;;;;;;;3.42;0.77;;;;;;;7.07;62.00;98324.97;10284538;28;20046;-78
2024/02/23 17:38:05;;;;;;;3.78;0.90;;;;;;;7.08;62.40;98321.31;10285857;28;20035;-78
2024/02/23 17:43:08;;;;;;;3.28;0.52;;;;;;;7.10;61.87;98321.16;10292941;28;20413;-78
2024/02/23 17:48:13;;;;;;;4.28;1.10;;;;;;;7.08;62.20;98334.66;10292546;28;20049;-78
2024/02/23 17:53:16;;;;;;;2.70;1.20;;;;;;;7.13;62.29;98331.53;10282629;28;20054;-78
2024/02/23 17:58:19;;;;;;;2.80;1.17;;;;;;;7.15;61.79;98335.72;10282635;28;20039;-78
2024/02/23 18:03:24;;;;;;;3.50;1.35;;;;;;;7.15;61.86;98345.56;10276829;28;20042;-78
2024/02/23 18:08:27;;;;;;;4.63;0.88;;;;;;;7.21;61.60;98344.94;10283088;28;20074;-78
2024/02/23 18:13:30;;;;;;;1.80;1.20;;;;;;;7.15;62.07;98348.22;10279147;28;20042;-78
2024/02/23 18:18:35;;;;;;;2.63;0.80;;;;;;;7.13;63.02;98356.41;10287422;28;20035;-78
2024/02/23 18:23:38;;;;;;;5.95;1.15;;;;;;;7.05;63.47;98362.50;10284143;28;20463;-78
2024/02/23 18:28:41;;;;;;;2.92;1.63;;;;;;;7.03;63.06;98361.81;10281723;28;20093;-77
2024/02/23 18:33:47;;;;;;;4.80;0.98;;;;;;;7.05;62.50;98375.84;10247651;28;20053;-77
2024/02/23 18:38:50;;;;;;;2.88;0.95;;;;;;;7.12;61.92;98368.06;10238577;28;21150;-78
2024/02/23 18:43:53;;;;;;;3.53;0.75;;;;;;;7.11;61.56;98377.06;10241730;28;20057;-77
2024/02/23 18:48:58;;;;;;;2.08;1.05;;;;;;;6.98;60.99;98377.44;10250214;28;20057;-77
2024/02/23 18:54:01;;;;;;;6.22;1.10;;;;;;;6.88;60.88;98378.47;10228765;28;20057;-77
2024/02/23 18:59:04;;;;;;;5.13;1.42;;;;;;;6.86;61.02;98386.63;10242576;28;20047;-77
2024/02/23 19:04:09;;;;;;;2.00;0.90;;;;;;;6.49;61.06;98392.81;10250005;28;20046;-77
2024/02/23 19:09:12;;;;;;;3.13;1.20;;;;;;;6.90;60.30;98396.03;10232063;28;20077;-78
2024/02/23 19:14:15;;;;;;;3.47;0.90;;;;;;;7.02;59.64;98391.31;10237643;28;21151;-78
2024/02/23 19:19:20;;;;;;;3.47;1.05;;;;;;;6.99;59.38;98405.81;10250702;28;21276;-77
2024/02/23 19:24:27;;;;;;;4.32;1.00;;;;;;;6.80;59.59;98408.53;10248303;28;20055;-77
2024/02/23 19:29:30;;;;;;;4.97;0.90;;;;;;;6.94;59.25;98394.75;10243347;28;20059;-78
2024/02/23 19:34:36;;;;;;;6.20;1.17;;;;;;;7.08;59.34;98400.56;10241246;28;20050;-79
2024/02/23 19:39:40;;;;;;;3.63;1.27;;;;;;;7.04;59.53;98403.53;10236875;28;20104;-78
2024/02/23 19:44:43;;;;;;;3.85;1.58;;;;;;;6.92;59.90;98398.56;10248199;28;20049;-77
2024/02/23 19:49:48;;;;;;;5.30;1.67;;;;;;;7.00;59.84;98409.31;10248886;28;20054;-78
2024/02/23 19:54:51;;;;;;;5.35;1.20;;;;;;;6.97;60.05;98409.63;10246368;28;20050;-78
2024/02/23 19:59:54;;;;;;;4.03;1.65;;;;;;;6.88;60.23;98402.50;10229247;28;20042;-78
2024/02/23 20:04:58;;;;;;;9.32;1.80;;;;;;;6.90;60.50;98416.53;10245845;28;20589;-77
2024/02/23 20:10:03;;;;;;;3.95;1.30;;;;;;;6.79;60.26;98414.88;10242400;28;20058;-77
2024/02/23 20:15:06;;;;;;;2.15;0.75;;;;;;;6.73;59.99;98416.31;10228892;28;20047;-77
2024/02/23 20:20:11;;;;;;;3.72;1.13;;;;;;;6.62;60.22;98404.00;10213670;28;20044;-77
2024/02/23 20:25:15;;;;;;;3.97;1.27;;;;;;;6.75;60.34;98417.00;10277463;28;20161;-77
2024/02/23 20:30:18;;;;;;;3.15;1.35;;;;;;;6.63;60.14;98419.00;10275806;28;20050;-78
2024/02/23 20:35:22;;;;;;;1.83;1.38;;;;;;;6.76;60.13;98412.50;10228785;28;20047;-79
2024/02/23 20:40:25;;;;;;;7.80;1.40;;;;;;;6.50;60.85;98415.00;10242521;28;20460;-78
2024/02/23 20:45:28;;;;;;;3.97;1.05;;;;;;;6.50;60.74;98399.84;10236715;28;20135;-78
2024/02/23 20:50:33;;;;;;;5.30;1.17;;;;;;;6.42;61.07;98410.41;10223459;28;21187;-78
2024/02/23 20:55:36;;;;;;;6.43;0.90;;;;;;;6.29;61.97;98417.88;10239736;28;20061;-78
2024/02/23 21:00:39;;;;;;;5.65;1.08;;;;;;;6.06;62.48;98422.69;10239844;28;20054;-78
2024/02/23 21:05:43;;;;;;;9.93;1.20;;;;;;;6.10;62.55;98427.59;10247488;28;20042;-77
2024/02/23 21:10:46;;;;;;;8.52;1.33;;;;;;;5.98;63.21;98422.56;10215008;28;20580;-78
2024/02/23 21:15:50;;;;;;;4.07;1.00;;;;;;;5.90;63.70;98407.31;10246753;28;20943;-78
2024/02/23 21:20:54;;;;;;;4.63;1.05;;;;;;;5.74;64.39;98421.22;10231965;28;20054;-78
2024/02/23 21:25:57;;;;;;;5.82;1.38;;;;;;;5.80;64.64;98412.66;10244551;28;20054;-78
2024/02/23 21:31:03;;;;;;;6.05;1.10;;;;;;;5.68;65.17;98424.44;10248822;28;20070;-78
2024/02/23 21:36:08;;;;;;;1.08;0.70;;;;;;;5.48;66.08;98431.56;10247735;28;21188;-77
2024/02/23 21:41:11;;;;;;;2.58;1.48;;;;;;;5.37;67.05;98424.56;10229875;28;20587;-77
2024/02/23 21:46:14;;;;;;;2.15;0.85;;;;;;;5.34;68.16;98429.31;10236924;28;20054;-77
2024/02/23 21:51:18;;;;;;;3.08;1.08;;;;;;;5.58;67.52;98418.28;10229252;28;21176;-77
2024/02/23 21:56:21;;;;;;;6.93;1.00;;;;;;;5.50;68.38;98418.97;10228187;28;20066;-77
2024/02/23 22:01:24;;;;;;;3.90;0.90;;;;;;;5.33;69.69;98428.50;10223505;28;20271;-77
2024/02/23 22:06:29;;;;;;;5.65;1.00;;;;;;;5.18;70.58;98424.53;10240501;28;20054;-77
2024/02/23 22:11:32;;;;;;;3.63;1.55;;;;;;;4.97;71.97;98425.47;10241846;28;20055;-77
2024/02/23 22:16:35;;;;;;;6.03;1.30;;;;;;;5.11;72.06;98431.41;10239387;28;20568;-77
2024/02/23 22:21:40;;;;;;;2.35;1.20;;;;;;;5.02;72.46;98423.25;10236618;28;20536;-79
2024/02/23 22:26:42;;;;;;;5.28;1.33;;;;;;;5.04;72.76;98410.63;10231014;28;20712;-77
2024/02/23 22:31:46;;;;;;;7.25;1.73;;;;;;;5.09;72.60;98415.56;10223771;28;20413;-77
2024/02/23 22:36:50;;;;;;;6.18;1.55;;;;;;;5.03;72.59;98424.94;10232045;28;20058;-77
2024/02/23 22:41:53;;;;;;;3.25;1.17;;;;;;;5.02;72.80;98417.94;10240602;28;20051;-76
2024/02/23 22:46:57;;;;;;;3.83;1.50;;;;;;;5.12;72.38;98425.09;10230286;28;20050;-77
2024/02/23 22:52:01;;;;;;;4.88;1.35;;;;;;;4.89;73.68;98422.63;10228625;28;21216;-77
2024/02/23 22:57:04;;;;;;;5.18;1.52;;;;;;;4.91;73.42;98434.00;10210534;28;20058;-76
2024/02/23 23:02:07;;;;;;;5.95;1.40;;;;;;;5.06;72.72;98418.50;10234091;28;20051;-76
2024/02/23 23:07:12;;;;;;;5.45;1.50;;;;;;;5.12;72.60;98422.44;10231997;28;20141;-77
2024/02/23 23:12:15;;;;;;;6.35;1.60;;;;;;;5.04;73.19;98426.59;10234116;28;20081;-77
2024/02/23 23:17:19;;;;;;;6.43;2.17;;;;;;;4.96;73.76;98422.91;10239071;28;20051;-77
2024/02/23 23:22:23;;;;;;;3.65;1.20;;;;;;;4.93;73.88;98421.38;10221634;28;20584;-76
2024/02/23 23:27:26;;;;;;;6.10;1.30;;;;;;;4.84;74.60;98423.03;10217736;28;20556;-77
2024/02/23 23:32:29;;;;;;;7.63;1.48;;;;;;;4.92;74.50;98422.34;10234135;28;20054;-77
2024/02/23 23:37:33;;;;;;;9.68;2.70;;;;;;;4.86;74.47;98436.22;10220720;28;20047;-77
2024/02/23 23:42:36;;;;;;;8.50;2.47;;;;;;;4.89;74.51;98437.75;10229214;28;20063;-77
2024/02/23 23:47:39;;;;;;;5.55;1.60;;;;;;;4.95;73.97;98438.03;10220769;28;20043;-77
2024/02/23 23:52:44;;;;;;;2.67;1.25;;;;;;;4.92;74.28;98438.31;10229815;28;20055;-77
2024/02/23 23:57:47;;;;;;;7.55;1.45;;;;;;;4.87;74.83;98443.19;10231823;28;20042;-77
